Time;durP1;ratioP1;P1;durP2;ratioP2;P2;SDS_P1;SDS_P2;PMS_P1;PMS_P2;Temp;Humidity;BMP_temperature;BMP_pressure;BME280_temperature;BME280_humidity;BME280_pressure;Samples;Min_cycle;Max_cycle;Signal;HPM_P1;HPM_P2
2022/09/02 02:46:22;;;;;;;2.95;1.30;;;13.50;99.90;;;;;;6019933;23;88744;31
2022/09/02 02:48:48;;;;;;;3.10;1.73;;;13.50;99.90;;;;;;4873182;28;87836;-84
2022/09/02 02:51:14;;;;;;;4.85;1.05;;;13.40;99.90;;;;;;4876964;28;87243;-84
2022/09/02 02:53:40;;;;;;;2.65;1.30;;;13.40;99.90;;;;;;4881915;28;86820;-80
2022/09/02 02:56:06;;;;;;;3.78;1.50;;;13.40;99.90;;;;;;4883797;28;86756;-82
2022/09/02 02:58:34;;;;;;;5.15;1.55;;;13.40;99.90;;;;;;4881887;28;86408;-82
2022/09/02 03:01:00;;;;;;;3.00;1.25;;;13.40;99.90;;;;;;4882774;28;87390;-82
2022/09/02 03:03:26;;;;;;;4.90;1.48;;;13.30;99.90;;;;;;4883445;28;86971;-82
2022/09/02 03:05:53;;;;;;;4.25;1.30;;;13.30;99.90;;;;;;4880169;28;87265;-82
2022/09/02 03:08:19;;;;;;;4.20;1.30;;;13.30;99.90;;;;;;4872538;28;86816;-83
2022/09/02 03:10:53;;;;;;;3.25;1.38;;;13.20;99.90;;;;;;4879487;28;87073;-83
2022/09/02 03:13:20;;;;;;;3.40;1.52;;;13.20;99.90;;;;;;4871296;28;87171;-83
2022/09/02 03:15:46;;;;;;;3.80;1.70;;;13.20;99.90;;;;;;4881052;28;86748;-85
2022/09/02 03:18:12;;;;;;;5.55;1.50;;;13.20;99.90;;;;;;4867065;28;86287;-84
2022/09/02 03:20:39;;;;;;;4.50;1.70;;;13.10;99.90;;;;;;4879649;28;88471;-84
2022/09/02 03:23:05;;;;;;;4.55;1.92;;;13.10;99.90;;;;;;4881688;28;86061;-84
2022/09/02 03:25:32;;;;;;;3.70;1.88;;;13.10;99.90;;;;;;4877631;28;87062;-82
2022/09/02 03:27:59;;;;;;;3.33;1.55;;;13.10;99.90;;;;;;4875513;28;86863;-82
2022/09/02 03:30:27;;;;;;;3.97;2.05;;;13.10;99.90;;;;;;4879250;28;88192;-84
2022/09/02 03:32:55;;;;;;;2.78;1.55;;;13.10;99.90;;;;;;4871628;28;88216;-83
2022/09/02 03:35:21;;;;;;;3.50;1.92;;;13.00;99.90;;;;;;4903668;28;88208;-82
2022/09/02 03:37:49;;;;;;;4.40;1.60;;;13.00;99.90;;;;;;4881551;28;87163;-82
2022/09/02 03:40:27;;;;;;;3.80;1.85;;;13.00;99.90;;;;;;4879621;28;86872;-82
2022/09/02 03:42:53;;;;;;;5.55;1.38;;;13.10;99.90;;;;;;4880738;28;86992;-82
2022/09/02 03:45:19;;;;;;;3.65;1.40;;;13.10;99.90;;;;;;4877964;28;88951;-81
2022/09/02 03:47:53;;;;;;;3.85;1.55;;;13.10;99.90;;;;;;4891524;28;85630;-82
2022/09/02 03:50:40;;;;;;;3.05;1.48;;;13.10;99.90;;;;;;4896748;28;87270;-82
2022/09/02 03:53:07;;;;;;;4.18;1.48;;;13.10;99.90;;;;;;4899034;28;87070;-82
2022/09/02 03:55:34;;;;;;;6.00;1.40;;;13.10;99.90;;;;;;4896822;28;87498;-85
2022/09/02 03:58:00;;;;;;;3.38;1.30;;;13.10;99.90;;;;;;4899874;28;86366;-84
2022/09/02 04:00:30;;;;;;;2.97;1.25;;;13.10;99.90;;;;;;4901854;28;87228;-85
2022/09/02 04:02:57;;;;;;;3.90;1.02;;;13.10;99.90;;;;;;4899546;28;87108;-85
2022/09/02 04:05:23;;;;;;;3.92;1.42;;;13.10;99.90;;;;;;4901229;28;86855;-84
2022/09/02 04:07:51;;;;;;;2.17;1.17;;;13.00;99.90;;;;;;4899121;28;86765;-84
2022/09/02 04:10:18;;;;;;;2.30;0.95;;;13.00;99.90;;;;;;4897112;28;88288;-84
2022/09/02 04:12:43;;;;;;;3.10;1.00;;;13.00;99.90;;;;;;4895432;28;88551;-84
2022/09/02 04:15:10;;;;;;;3.35;1.20;;;13.00;99.90;;;;;;4898473;28;86287;-84
2022/09/02 04:17:38;;;;;;;4.05;1.38;;;13.00;99.90;;;;;;4896349;28;87030;-84
2022/09/02 04:20:06;;;;;;;2.90;1.23;;;13.10;99.90;;;;;;4897256;28;87780;-84
2022/09/02 04:22:32;;;;;;;3.65;1.50;;;13.10;99.90;;;;;;4898835;28;88423;-83
2022/09/02 04:24:58;;;;;;;3.67;1.15;;;13.00;99.90;;;;;;4898103;28;86892;-80
2022/09/02 04:27:24;;;;;;;6.00;1.80;;;13.10;99.90;;;;;;4898711;28;86753;-80
2022/09/02 04:29:49;;;;;;;4.07;1.20;;;13.00;99.90;;;;;;4897563;28;87029;-81
2022/09/02 04:32:15;;;;;;;2.50;0.82;;;13.00;99.90;;;;;;4899250;28;86944;-82
2022/09/02 04:34:41;;;;;;;3.28;1.40;;;13.00;99.90;;;;;;4894318;28;86709;-80
2022/09/02 04:37:06;;;;;;;2.22;1.05;;;13.00;99.90;;;;;;4898387;28;85738;-81
2022/09/02 04:39:32;;;;;;;2.50;1.10;;;12.90;99.90;;;;;;4902208;28;87362;-80
2022/09/02 04:41:58;;;;;;;2.83;1.20;;;12.90;99.90;;;;;;4913662;28;86669;-84
2022/09/02 04:44:24;;;;;;;2.58;1.10;;;12.90;99.90;;;;;;4910945;28;87745;-84
2022/09/02 04:46:50;;;;;;;2.50;1.35;;;12.90;99.90;;;;;;4899286;28;87264;-84
2022/09/02 04:49:16;;;;;;;2.75;1.30;;;12.90;99.90;;;;;;4896789;28;87204;-85
2022/09/02 04:51:42;;;;;;;3.00;1.25;;;12.90;99.90;;;;;;4904790;28;87489;-84
2022/09/02 04:54:07;;;;;;;4.10;1.65;;;12.90;99.90;;;;;;4897090;28;87033;-84
2022/09/02 04:56:33;;;;;;;4.22;1.63;;;13.00;99.90;;;;;;4903423;28;86921;-85
2022/09/02 04:58:59;;;;;;;6.28;1.52;;;13.00;99.90;;;;;;4902085;28;87106;-84
2022/09/02 05:01:30;;;;;;;4.88;1.15;;;13.10;99.90;;;;;;4901759;28;87253;-82
2022/09/02 05:03:56;;;;;;;2.92;1.30;;;13.30;99.90;;;;;;4889848;28;86858;-81
2022/09/02 05:06:26;;;;;;;3.67;1.42;;;13.50;99.90;;;;;;4896609;28;88461;-82
2022/09/02 05:08:53;;;;;;;5.50;1.38;;;13.50;99.90;;;;;;4894034;28;88395;-81
2022/09/02 05:11:22;;;;;;;5.40;1.42;;;13.60;99.90;;;;;;4894211;28;87500;-81
2022/09/02 05:13:52;;;;;;;3.25;0.90;;;13.80;99.90;;;;;;4897680;28;87110;-81
2022/09/02 05:16:20;;;;;;;3.00;1.02;;;14.20;99.90;;;;;;4898737;28;86361;-81
2022/09/02 05:18:47;;;;;;;3.97;0.90;;;14.50;99.90;;;;;;4899831;28;87282;-82
2022/09/02 05:21:13;;;;;;;2.97;1.00;;;15.00;99.90;;;;;;4898996;28;86930;-81
2022/09/02 05:23:39;;;;;;;3.38;0.95;;;15.90;99.90;;;;;;4897154;28;86338;-82
2022/09/02 05:26:06;;;;;;;5.25;1.35;;;16.70;98.90;;;;;;4899040;28;86322;-82
2022/09/02 05:28:33;;;;;;;9.70;1.33;;;17.30;97.90;;;;;;4897700;28;88925;-82
2022/09/02 05:31:04;;;;;;;4.03;0.88;;;17.70;94.80;;;;;;4897863;28;87038;-85
2022/09/02 05:33:31;;;;;;;3.47;1.00;;;18.30;93.00;;;;;;4900276;28;87279;-83
2022/09/02 05:35:57;;;;;;;3.03;1.08;;;18.80;87.60;;;;;;4892612;28;87836;-83
2022/09/02 05:38:24;;;;;;;3.15;0.98;;;19.50;90.20;;;;;;4898401;28;88122;-85
2022/09/02 05:40:50;;;;;;;3.47;1.10;;;20.20;84.30;;;;;;4898409;28;88848;-85
2022/09/02 05:43:15;;;;;;;3.80;0.85;;;21.00;81.60;;;;;;4900778;28;86748;-85
2022/09/02 05:45:41;;;;;;;3.60;1.00;;;21.70;79.50;;;;;;4901602;28;86324;-83
2022/09/02 05:50:51;;;;;;;3.95;1.33;;;21.80;75.50;;;;;;4892189;28;86390;-82
2022/09/02 05:53:17;;;;;;;2.65;0.90;;;21.90;72.40;;;;;;4894280;28;87313;-82
2022/09/02 05:55:43;;;;;;;5.13;1.02;;;21.70;72.70;;;;;;4902479;28;86420;-82
2022/09/02 05:58:08;;;;;;;4.38;0.68;;;21.60;72.20;;;;;;4896738;28;88377;-84
2022/09/02 06:00:34;;;;;;;2.40;0.70;;;22.20;69.80;;;;;;4898751;28;87943;-83
2022/09/02 06:03:00;;;;;;;5.75;1.00;;;22.90;70.40;;;;;;4899479;28;87015;-84
2022/09/02 06:05:26;;;;;;;6.05;0.82;;;23.70;66.10;;;;;;4904915;28;86855;-83
2022/09/02 06:07:51;;;;;;;6.18;1.33;;;22.60;68.90;;;;;;4901917;28;89009;-83
2022/09/02 06:10:17;;;;;;;10.38;1.48;;;22.80;67.80;;;;;;4901345;28;88489;-83
2022/09/02 06:12:43;;;;;;;3.35;1.17;;;22.30;67.10;;;;;;4894917;28;86563;-83
2022/09/02 06:15:10;;;;;;;3.78;1.00;;;23.00;67.50;;;;;;4899306;28;85811;-83
2022/09/02 06:17:35;;;;;;;4.43;1.27;;;23.30;66.20;;;;;;4901427;28;87743;-83
2022/09/02 06:20:02;;;;;;;3.47;1.10;;;23.50;64.40;;;;;;4902284;28;86676;-83
2022/09/02 06:22:27;;;;;;;2.50;1.08;;;24.70;63.40;;;;;;4897248;28;87706;-83
2022/09/02 06:24:53;;;;;;;4.82;0.75;;;26.00;59.10;;;;;;4899810;28;86739;-83
2022/09/02 06:27:19;;;;;;;4.38;0.95;;;27.10;57.20;;;;;;4903986;28;87200;-84
2022/09/02 06:29:45;;;;;;;2.75;1.13;;;27.60;56.70;;;;;;4899532;28;86350;-83
2022/09/02 06:32:10;;;;;;;4.15;1.10;;;28.30;53.10;;;;;;4899446;28;86877;-83
2022/09/02 06:34:38;;;;;;;4.22;1.65;;;27.70;53.60;;;;;;4900746;28;87043;-83
2022/09/02 06:37:04;;;;;;;3.67;1.42;;;26.50;55.50;;;;;;4901003;28;87748;-84
2022/09/02 06:39:29;;;;;;;2.78;1.20;;;25.30;58.60;;;;;;4899920;28;86885;-81
2022/09/02 06:41:55;;;;;;;4.40;1.20;;;26.70;58.00;;;;;;4894550;28;86876;-83
2022/09/02 06:44:21;;;;;;;5.05;1.13;;;27.60;55.50;;;;;;4885377;28;87182;-82
2022/09/02 06:46:53;;;;;;;4.47;1.55;;;27.90;53.30;;;;;;4897486;28;88250;-83
2022/09/02 06:49:20;;;;;;;2.22;1.20;;;28.60;53.10;;;;;;4896754;28;87340;-82
2022/09/02 06:51:47;;;;;;;2.17;1.33;;;30.10;50.50;;;;;;4897142;28;86686;-85
2022/09/02 06:54:17;;;;;;;3.05;1.40;;;31.50;48.20;;;;;;4897739;28;86926;-85
2022/09/02 06:56:44;;;;;;;3.55;1.08;;;31.60;48.20;;;;;;4897910;28;89342;-85
2022/09/02 06:59:10;;;;;;;3.10;1.52;;;32.30;46.60;;;;;;4898645;28;87016;-85
2022/09/02 07:01:36;;;;;;;3.83;1.52;;;33.40;44.70;;;;;;4898965;28;86774;-86
2022/09/02 07:06:50;;;;;;;3.28;1.40;;;31.50;45.40;;;;;;4889135;28;86758;-86
2022/09/02 07:09:19;;;;;;;4.18;1.48;;;31.30;47.00;;;;;;4898118;28;87088;-85
2022/09/02 07:11:48;;;;;;;5.68;1.65;;;32.30;46.40;;;;;;4896484;28;87511;-86
2022/09/02 07:14:15;;;;;;;4.30;2.08;;;32.70;46.00;;;;;;4898799;28;86382;-86
2022/09/02 07:16:49;;;;;;;4.10;1.38;;;33.30;44.20;;;;;;4897005;28;86340;-85
2022/09/02 07:19:15;;;;;;;2.53;1.38;;;34.60;42.10;;;;;;4895471;28;86448;-86
2022/09/02 07:21:41;;;;;;;4.50;1.75;;;35.70;40.30;;;;;;4898506;28;86283;-86
2022/09/02 07:24:10;;;;;;;2.33;1.80;;;35.50;41.20;;;;;;4897272;28;86700;-86
2022/09/02 07:26:35;;;;;;;2.75;1.48;;;35.10;41.60;;;;;;4897839;28;87231;-86
2022/09/02 07:29:01;;;;;;;3.40;1.63;;;35.60;39.50;;;;;;4897168;28;87894;-86
2022/09/02 07:31:28;;;;;;;2.55;1.75;;;35.90;39.60;;;;;;4897779;28;86792;-86
2022/09/02 07:33:57;;;;;;;3.55;1.90;;;36.60;39.10;;;;;;4898393;28;86421;-86
2022/09/02 07:36:24;;;;;;;3.75;3.22;;;37.10;38.90;;;;;;4891229;28;89799;-81
2022/09/02 07:38:50;;;;;;;2.50;1.88;;;37.20;38.00;;;;;;4902561;28;88096;-82
2022/09/02 07:41:16;;;;;;;4.57;1.50;;;38.40;37.70;;;;;;4897761;28;87705;-82
2022/09/02 07:43:42;;;;;;;2.50;1.98;;;39.10;36.20;;;;;;4898005;28;87165;-83
2022/09/02 07:46:08;;;;;;;5.07;2.40;;;40.00;35.70;;;;;;4897772;28;88748;-82
2022/09/02 07:48:34;;;;;;;3.60;2.67;;;40.50;35.60;;;;;;4898656;28;87396;-82
2022/09/02 07:51:01;;;;;;;4.85;3.63;;;40.70;34.90;;;;;;4899957;28;87076;-83
2022/09/02 07:53:27;;;;;;;3.33;2.42;;;40.00;36.40;;;;;;4898389;28;85995;-82
2022/09/02 07:55:53;;;;;;;4.15;2.33;;;39.30;36.70;;;;;;4891711;28;88868;-82
2022/09/02 07:58:21;;;;;;;6.57;1.88;;;38.90;37.40;;;;;;4896768;28;86654;-83
2022/09/02 08:00:47;;;;;;;5.22;2.33;;;36.60;39.00;;;;;;4899928;28;87732;-82
2022/09/02 08:03:13;;;;;;;3.40;1.80;;;34.70;39.80;;;;;;4903701;28;86242;-83
2022/09/02 08:05:40;;;;;;;3.88;2.45;;;33.50;43.30;;;;;;4900655;28;88973;-83
2022/09/02 08:08:07;;;;;;;2.75;2.28;;;33.80;44.00;;;;;;4897795;28;86923;-83
2022/09/02 08:10:36;;;;;;;3.72;2.13;;;36.30;40.20;;;;;;4900337;28;86604;-83
2022/09/02 08:13:04;;;;;;;3.85;2.08;;;37.70;38.40;;;;;;4896546;28;87061;-83
2022/09/02 08:15:30;;;;;;;4.40;3.92;;;39.40;36.90;;;;;;4900580;28;87489;-83
2022/09/02 08:17:57;;;;;;;3.08;2.75;;;40.50;36.40;;;;;;4900506;28;88162;-89
2022/09/02 08:20:23;;;;;;;3.85;2.17;;;40.30;36.50;;;;;;4896577;28;86855;-83
2022/09/02 08:22:49;;;;;;;3.40;2.60;;;41.20;35.30;;;;;;4897910;28;86352;-85
2022/09/02 08:25:17;;;;;;;3.58;2.42;;;41.30;35.20;;;;;;4896094;28;88110;-84
2022/09/02 08:27:43;;;;;;;3.10;2.80;;;40.20;36.40;;;;;;4898787;28;89217;-85
2022/09/02 08:30:10;;;;;;;4.05;3.28;;;40.10;35.60;;;;;;4898181;28;87592;-84
2022/09/02 08:32:37;;;;;;;6.40;2.92;;;41.00;34.70;;;;;;4902327;28;86628;-84
2022/09/02 08:35:04;;;;;;;3.83;2.38;;;40.50;35.00;;;;;;4900652;28;86827;-84
2022/09/02 08:37:31;;;;;;;3.13;2.22;;;41.00;35.20;;;;;;4899635;28;87052;-84
2022/09/02 08:39:58;;;;;;;4.72;3.17;;;41.00;35.20;;;;;;4900304;28;86371;-85
2022/09/02 08:42:29;;;;;;;3.17;2.50;;;41.70;33.50;;;;;;4899541;28;86124;-84
2022/09/02 08:45:03;;;;;;;4.07;3.40;;;41.20;34.50;;;;;;4900051;28;88214;-84
2022/09/02 08:47:32;;;;;;;4.97;2.60;;;41.40;35.00;;;;;;4893796;28;87190;-84
2022/09/02 08:50:13;;;;;;;4.93;2.97;;;40.50;35.50;;;;;;4903597;28;87573;-84
2022/09/02 08:53:03;;;;;;;2.90;2.60;;;40.00;35.40;;;;;;4899861;28;86500;-85
2022/09/02 08:55:39;;;;;;;4.75;4.25;;;40.70;36.00;;;;;;4896919;28;87204;-85
2022/09/02 08:58:05;;;;;;;3.78;2.88;;;41.10;34.50;;;;;;4900805;28;86394;-84
2022/09/02 09:00:39;;;;;;;5.78;3.25;;;41.20;35.10;;;;;;4898847;28;87230;-84
2022/09/02 09:03:27;;;;;;;7.35;5.45;;;42.40;33.30;;;;;;4900082;28;86728;-85
2022/09/02 09:06:17;;;;;;;4.63;3.00;;;42.20;34.10;;;;;;4898943;28;87460;-84
2022/09/02 09:09:05;;;;;;;5.28;3.70;;;41.20;33.70;;;;;;4900040;28;87352;-85
2022/09/02 09:11:48;;;;;;;5.75;4.53;;;41.80;34.50;;;;;;4899603;28;87031;-85
2022/09/02 09:14:22;;;;;;;4.90;4.03;;;42.20;33.80;;;;;;4899489;28;86403;-84
2022/09/02 09:16:57;;;;;;;4.07;3.67;;;43.00;32.10;;;;;;4898683;28;88165;-84
2022/09/02 09:19:31;;;;;;;4.15;3.75;;;42.30;33.50;;;;;;4895776;28;87800;-85
2022/09/02 09:22:02;;;;;;;3.83;2.90;;;42.00;34.40;;;;;;4902406;28;87047;-84
2022/09/02 09:24:36;;;;;;;5.50;3.83;;;42.50;33.00;;;;;;4898709;28;86941;-85
2022/09/02 09:27:13;;;;;;;4.97;3.72;;;41.90;33.60;;;;;;4894385;28;87781;-84
2022/09/02 09:29:39;;;;;;;5.63;3.20;;;41.50;34.20;;;;;;4900893;28;86647;-85
2022/09/02 09:32:13;;;;;;;4.03;3.60;;;41.80;33.70;;;;;;4897315;28;88143;-86
2022/09/02 09:35:06;;;;;;;4.50;4.00;;;42.00;33.20;;;;;;4894731;28;86014;-82
2022/09/02 09:37:44;;;;;;;5.13;4.65;;;41.70;34.20;;;;;;4893468;28;89165;-86
2022/09/02 09:40:21;;;;;;;5.25;3.95;;;40.90;34.30;;;;;;4898622;28;87087;-84
2022/09/02 09:43:04;;;;;;;4.20;3.80;;;41.20;34.80;;;;;;4904696;28;87852;-83
2022/09/02 09:45:50;;;;;;;5.55;3.85;;;41.10;34.70;;;;;;4904960;28;86314;-86
2022/09/02 09:48:17;;;;;;;4.20;2.90;;;40.00;35.00;;;;;;4902798;28;87278;-83
2022/09/02 09:50:45;;;;;;;4.00;3.60;;;40.90;35.00;;;;;;4902538;28;86580;-84
2022/09/02 09:53:27;;;;;;;9.35;7.13;;;42.40;33.50;;;;;;4899876;28;86997;-83
2022/09/02 09:55:56;;;;;;;4.22;3.83;;;42.40;33.30;;;;;;4897497;28;87047;-83
2022/09/02 09:58:29;;;;;;;4.93;3.90;;;42.10;33.30;;;;;;4898830;28;88099;-83
2022/09/02 10:00:59;;;;;;;5.68;5.10;;;41.40;34.70;;;;;;4898863;28;87029;-84
2022/09/02 10:03:29;;;;;;;4.55;3.90;;;40.90;34.90;;;;;;4894389;28;87259;-85
2022/09/02 10:05:57;;;;;;;4.13;3.67;;;40.20;34.70;;;;;;4899334;28;86653;-83
2022/09/02 10:08:25;;;;;;;5.50;4.55;;;40.60;35.10;;;;;;4912962;28;89173;-83
2022/09/02 10:11:00;;;;;;;4.30;3.90;;;39.20;36.60;;;;;;4895613;28;88832;-85
2022/09/02 10:13:28;;;;;;;;;;;38.60;36.90;;;;;;4894670;28;87306;-83
2022/09/02 10:16:10;;;;;;;8.23;7.35;;;39.20;35.90;;;;;;4901507;28;86273;-82
2022/09/02 10:18:38;;;;;;;5.45;4.95;;;37.40;37.60;;;;;;4895026;28;86901;-83
2022/09/02 10:21:22;;;;;;;5.45;4.45;;;36.40;38.30;;;;;;4897429;28;86333;-82
2022/09/02 10:24:06;;;;;;;4.13;3.72;;;35.40;39.60;;;;;;4897231;28;86819;-83
2022/09/02 10:26:47;;;;;;;5.53;3.20;;;34.20;41.20;;;;;;4896776;28;86525;-83
2022/09/02 10:29:34;;;;;;;5.53;3.17;;;31.60;45.60;;;;;;4896571;28;87123;-80
2022/09/02 10:32:12;;;;;;;3.90;3.28;;;29.10;50.00;;;;;;4899006;28;86674;-80
2022/09/02 10:34:46;;;;;;;5.82;2.92;;;27.50;54.40;;;;;;4899002;28;88153;-81
2022/09/02 10:37:19;;;;;;;5.13;3.08;;;26.30;55.50;;;;;;4897036;28;86783;-82
2022/09/02 10:40:03;;;;;;;5.15;2.90;;;25.70;57.30;;;;;;4899752;28;87280;-82
2022/09/02 10:42:54;;;;;;;4.13;2.13;;;25.60;58.70;;;;;;4898899;28;86918;-80
2022/09/02 10:45:24;;;;;;;3.42;2.55;;;26.10;56.40;;;;;;4898515;28;86847;-80
2022/09/02 10:48:13;;;;;;;3.72;2.65;;;25.60;56.70;;;;;;4898649;28;86396;-80
2022/09/02 10:50:48;;;;;;;3.70;3.10;;;25.80;58.10;;;;;;4897590;28;87687;-81
2022/09/02 10:53:34;;;;;;;;;;;25.80;57.50;;;;;;4895870;28;87354;-81
2022/09/02 10:56:23;;;;;;;2.60;1.52;;;25.80;56.50;;;;;;4892717;28;86309;-80
2022/09/02 10:59:00;;;;;;;4.82;2.55;;;25.60;56.50;;;;;;4898197;28;87075;-80
2022/09/02 11:01:33;;;;;;;4.18;1.98;;;25.60;56.70;;;;;;4898134;28;87633;-79
2022/09/02 11:04:28;;;;;;;4.20;2.53;;;25.60;57.50;;;;;;4898320;28;87213;-79
2022/09/02 11:06:56;;;;;;;4.32;2.42;;;25.10;58.80;;;;;;4899327;28;86177;-82
2022/09/02 11:09:28;;;;;;;3.03;2.00;;;24.70;60.20;;;;;;4902401;28;86687;-80
2022/09/02 11:12:01;;;;;;;4.30;2.60;;;24.60;61.40;;;;;;4899757;28;88111;-80
2022/09/02 11:14:53;;;;;;;3.38;2.22;;;25.10;59.90;;;;;;4899105;28;86661;-80
2022/09/02 11:17:42;;;;;;;5.88;2.75;;;25.20;60.30;;;;;;4881810;28;87036;-81
2022/09/02 11:20:29;;;;;;;3.60;2.15;;;25.20;60.50;;;;;;4900444;28;86273;-80
2022/09/02 11:23:05;;;;;;;3.42;2.28;;;24.90;60.70;;;;;;4898144;28;86414;-79
2022/09/02 11:25:59;;;;;;;4.78;2.38;;;24.70;61.70;;;;;;4894097;28;87547;-82
2022/09/02 11:28:32;;;;;;;4.35;2.35;;;24.30;62.60;;;;;;4896108;28;87362;-78
2022/09/02 11:31:09;;;;;;;3.72;2.38;;;24.50;62.60;;;;;;4901454;28;87101;-82
2022/09/02 11:33:56;;;;;;;4.10;2.70;;;24.30;63.80;;;;;;4900844;28;87204;-78
2022/09/02 11:36:25;;;;;;;5.10;2.90;;;24.00;66.40;;;;;;4899344;28;86988;-78
2022/09/02 11:38:59;;;;;;;5.13;2.50;;;24.20;64.70;;;;;;4889400;28;87222;-78
2022/09/02 11:41:55;;;;;;;3.75;2.85;;;23.80;65.70;;;;;;4898673;28;86301;-78
2022/09/02 11:44:45;;;;;;;4.82;2.67;;;24.00;64.60;;;;;;4901636;28;86621;-78
2022/09/02 11:47:26;;;;;;;5.68;2.72;;;24.00;66.00;;;;;;4899581;28;87962;-77
2022/09/02 11:50:22;;;;;;;5.03;2.70;;;24.40;64.60;;;;;;4902969;28;86818;-79
2022/09/02 11:53:01;;;;;;;4.07;2.47;;;24.20;65.10;;;;;;4904406;28;86367;-78
2022/09/02 11:55:35;;;;;;;2.85;1.80;;;24.20;65.20;;;;;;4902118;28;88424;-78
2022/09/02 11:58:01;;;;;;;5.50;2.42;;;24.00;66.60;;;;;;4901678;28;88662;-78
2022/09/02 12:00:34;;;;;;;9.07;2.88;;;24.10;65.40;;;;;;4903901;28;87275;-80
2022/09/02 12:03:11;;;;;;;4.70;2.65;;;24.10;66.40;;;;;;4903913;28;86837;-78
2022/09/02 12:05:38;;;;;;;5.78;3.38;;;24.30;66.10;;;;;;4904592;28;87241;-79
2022/09/02 12:08:26;;;;;;;4.82;2.40;;;24.10;65.80;;;;;;4895649;28;87676;-80
2022/09/02 12:10:52;;;;;;;3.80;2.65;;;24.00;66.60;;;;;;4894999;28;86395;-78
2022/09/02 12:13:48;;;;;;;4.15;2.22;;;24.00;68.00;;;;;;4900575;28;85836;-80
2022/09/02 12:16:20;;;;;;;6.22;2.42;;;24.10;66.50;;;;;;4900048;28;87529;-79
2022/09/02 12:18:52;;;;;;;5.75;2.25;;;24.00;67.80;;;;;;4900540;28;86968;-77
2022/09/02 12:21:19;;;;;;;4.55;2.45;;;24.00;67.10;;;;;;4900505;28;87391;-78
2022/09/02 12:23:52;;;;;;;3.60;2.35;;;24.10;67.90;;;;;;4900757;28;86253;-77
2022/09/02 12:26:20;;;;;;;3.78;2.25;;;24.10;66.10;;;;;;4898272;28;86755;-77
2022/09/02 12:28:47;;;;;;;3.58;2.10;;;24.40;65.80;;;;;;4899895;28;88001;-78
2022/09/02 12:31:19;;;;;;;3.50;2.40;;;24.60;65.40;;;;;;4899098;28;86268;-81
2022/09/02 12:33:48;;;;;;;3.53;2.17;;;24.60;66.10;;;;;;4899807;28;86718;-80
2022/09/02 12:36:40;;;;;;;5.38;2.28;;;24.40;67.10;;;;;;4898213;28;88915;-80
2022/09/02 12:39:26;;;;;;;3.60;1.90;;;24.40;65.60;;;;;;4890721;28;86413;-78
2022/09/02 12:42:02;;;;;;;4.25;2.30;;;24.30;68.30;;;;;;4886701;28;87091;-78
2022/09/02 12:44:50;;;;;;;5.35;2.50;;;24.50;67.50;;;;;;4898048;28;86782;-82
2022/09/02 12:47:25;;;;;;;3.10;1.90;;;24.40;66.20;;;;;;4895829;28;88671;-78
2022/09/02 12:50:00;;;;;;;2.90;1.55;;;24.30;68.10;;;;;;4897531;28;88632;-81
2022/09/02 12:52:41;;;;;;;4.35;2.53;;;24.30;69.00;;;;;;4897818;28;86324;-80
2022/09/02 12:55:29;;;;;;;4.65;2.97;;;24.10;67.20;;;;;;4898000;28;86381;-81
2022/09/02 12:58:09;;;;;;;3.65;1.98;;;24.10;65.20;;;;;;4898413;28;87191;-79
2022/09/02 13:01:15;;;;;;;4.00;3.10;;;24.20;64.30;;;;;;4897799;28;87286;-79
2022/09/02 13:04:12;;;;;;;3.47;1.80;;;24.20;66.60;;;;;;4898098;28;86678;-80
2022/09/02 13:06:38;;;;;;;2.60;1.88;;;24.10;67.60;;;;;;4898926;28;85565;-80
2022/09/02 13:09:55;;;;;;;6.60;1.92;;;24.10;68.30;;;;;;4898203;28;86708;-80
2022/09/02 13:12:46;;;;;;;5.07;1.83;;;24.00;68.20;;;;;;4844696;28;86435;-81
2022/09/02 13:15:53;;;;;;;6.30;1.80;;;24.10;68.90;;;;;;4896918;28;87790;-82
2022/09/02 13:18:45;;;;;;;3.92;2.08;;;24.10;67.20;;;;;;4897004;28;86910;-81
2022/09/02 13:21:40;;;;;;;3.15;1.48;;;24.10;67.10;;;;;;4897508;28;86631;-79
2022/09/02 13:24:26;;;;;;;4.03;1.80;;;24.20;65.00;;;;;;4897301;28;87008;-80
2022/09/02 13:26:57;;;;;;;4.90;1.95;;;24.20;66.80;;;;;;4895249;28;86318;-80
2022/09/02 13:29:32;;;;;;;4.35;1.63;;;24.10;65.70;;;;;;4897832;28;86978;-80
2022/09/02 13:32:25;;;;;;;3.13;1.88;;;24.10;69.30;;;;;;4896813;28;86939;-81
2022/09/02 13:34:56;;;;;;;4.25;1.63;;;24.30;67.40;;;;;;4890899;28;87237;-80
2022/09/02 13:37:39;;;;;;;2.53;1.30;;;24.20;68.00;;;;;;4891557;28;86497;-81
2022/09/02 13:40:20;;;;;;;6.53;2.08;;;24.20;67.80;;;;;;4897339;28;86307;-79
2022/09/02 13:42:53;;;;;;;3.47;1.70;;;24.30;67.40;;;;;;4897124;28;88204;-80
2022/09/02 13:45:22;;;;;;;5.85;2.22;;;24.20;68.90;;;;;;4895557;28;87499;-82
2022/09/02 13:47:53;;;;;;;3.63;1.70;;;24.20;69.20;;;;;;4893403;28;87079;-82
2022/09/02 13:50:22;;;;;;;3.60;2.03;;;24.30;65.50;;;;;;4897690;28;86650;-82
2022/09/02 13:52:52;;;;;;;;;;;24.40;65.50;;;;;;4897538;28;87063;-80
2022/09/02 13:55:19;;;;;;;3.80;2.10;;;24.40;65.00;;;;;;4898654;28;86331;-81
2022/09/02 13:57:54;;;;;;;5.70;2.08;;;24.60;64.10;;;;;;4897293;28;86507;-81
2022/09/02 14:00:40;;;;;;;3.30;1.45;;;24.40;67.90;;;;;;4898548;28;86428;-81
2022/09/02 14:03:13;;;;;;;3.88;2.08;;;24.20;67.20;;;;;;4896064;28;87585;-79
2022/09/02 14:05:44;;;;;;;3.38;1.33;;;24.30;65.10;;;;;;4897285;28;86975;-78
2022/09/02 14:08:20;;;;;;;3.42;1.52;;;24.10;67.30;;;;;;4896836;28;87370;-80
2022/09/02 14:10:48;;;;;;;3.70;1.80;;;24.20;66.50;;;;;;4896670;28;87216;-78
2022/09/02 14:13:15;;;;;;;3.80;1.75;;;24.30;66.40;;;;;;4896572;28;88370;-80
2022/09/02 14:15:41;;;;;;;2.95;1.60;;;24.30;65.40;;;;;;4896737;28;86963;-80
2022/09/02 14:18:18;;;;;;;2.58;1.70;;;24.30;66.90;;;;;;4896482;28;86676;-78
2022/09/02 14:21:30;;;;;;;4.20;1.45;;;24.20;66.90;;;;;;4896672;28;86320;-79
2022/09/02 14:23:56;;;;;;;2.92;1.52;;;24.20;68.40;;;;;;4841714;29;86669;-82
2022/09/02 14:26:37;;;;;;;2.70;1.30;;;24.40;65.50;;;;;;4885728;28;86868;-77
2022/09/02 14:29:07;;;;;;;2.72;1.40;;;24.50;65.30;;;;;;4900917;28;86505;-78
2022/09/02 14:31:33;;;;;;;2.70;1.63;;;24.50;64.50;;;;;;4900267;28;86270;-80
2022/09/02 14:34:00;;;;;;;4.63;1.63;;;24.30;65.80;;;;;;4898479;28;88135;-80
2022/09/02 14:36:36;;;;;;;5.78;1.55;;;24.30;66.50;;;;;;4898453;28;87764;-77
2022/09/02 14:39:13;;;;;;;3.63;1.42;;;24.10;64.50;;;;;;4894200;28;86711;-79
2022/09/02 14:41:49;;;;;;;4.07;1.50;;;24.20;66.10;;;;;;4899169;28;86312;-75
2022/09/02 14:44:31;;;;;;;2.40;1.25;;;24.20;65.40;;;;;;4902753;28;87251;-79
2022/09/02 14:46:58;;;;;;;;;;;24.40;62.30;;;;;;4915103;28;87002;-77
2022/09/02 14:49:35;;;;;;;2.92;1.08;;;24.20;63.10;;;;;;4913487;28;86761;-75
2022/09/02 14:52:17;;;;;;;3.20;1.17;;;24.30;62.30;;;;;;4897929;28;85558;-77
2022/09/02 14:54:46;;;;;;;1.80;1.00;;;24.10;62.60;;;;;;4903356;28;87342;-76
2022/09/02 14:57:30;;;;;;;2.58;1.10;;;24.30;61.60;;;;;;4904428;28;86840;-76
2022/09/02 15:00:16;;;;;;;4.45;1.65;;;24.20;63.00;;;;;;4904763;28;87111;-75
2022/09/02 15:02:45;;;;;;;1.85;1.13;;;24.10;63.20;;;;;;4897366;28;86408;-75
2022/09/02 15:05:13;;;;;;;2.58;1.23;;;24.10;63.50;;;;;;4904556;28;86712;-77
2022/09/02 15:07:39;;;;;;;2.28;1.33;;;24.10;63.60;;;;;;4904498;28;87014;-75
2022/09/02 15:10:08;;;;;;;2.13;1.13;;;24.10;62.00;;;;;;4919160;28;86133;-75
2022/09/02 15:12:49;;;;;;;2.20;1.42;;;24.00;61.60;;;;;;4909984;28;86289;-79
2022/09/02 15:15:15;;;;;;;4.45;0.93;;;24.00;64.20;;;;;;4904932;28;88087;-77
2022/09/02 15:17:41;;;;;;;2.85;1.52;;;24.00;63.80;;;;;;4903602;28;85850;-76
2022/09/02 15:20:07;;;;;;;5.03;1.40;;;24.30;64.30;;;;;;4904626;28;86670;-75
2022/09/02 15:22:33;;;;;;;2.92;1.58;;;24.20;64.30;;;;;;4903979;28;86359;-75
2022/09/02 15:24:59;;;;;;;4.00;1.40;;;24.30;64.00;;;;;;4902603;28;88670;-79
2022/09/02 15:27:25;;;;;;;2.78;1.17;;;24.30;62.90;;;;;;4904013;28;86966;-76
2022/09/02 15:29:51;;;;;;;2.40;1.17;;;24.30;63.20;;;;;;4908208;28;86719;-75
2022/09/02 15:32:17;;;;;;;2.42;1.30;;;24.20;63.40;;;;;;4904194;28;86611;-75
2022/09/02 15:34:43;;;;;;;2.17;1.05;;;24.40;63.80;;;;;;4904608;28;87073;-77
2022/09/02 15:37:09;;;;;;;3.25;1.55;;;24.60;62.80;;;;;;4904083;28;86942;-78
2022/09/02 15:39:35;;;;;;;2.78;1.45;;;24.80;63.00;;;;;;4904209;28;86518;-76
2022/09/02 15:42:01;;;;;;;2.97;1.40;;;24.50;61.20;;;;;;4904819;28;85554;-76
2022/09/02 15:44:28;;;;;;;1.73;1.13;;;24.40;60.80;;;;;;4903812;28;87221;-75
2022/09/02 15:46:54;;;;;;;2.70;1.13;;;24.60;61.00;;;;;;4902789;28;86959;-77
2022/09/02 15:49:21;;;;;;;2.63;1.25;;;24.60;60.50;;;;;;4903967;28;87135;-79
2022/09/02 15:51:48;;;;;;;2.60;1.10;;;24.60;60.40;;;;;;4903896;28;86777;-76
2022/09/02 15:54:16;;;;;;;2.53;1.02;;;24.80;60.90;;;;;;4903823;28;87251;-75
2022/09/02 15:56:43;;;;;;;3.63;1.90;;;24.60;61.90;;;;;;4904346;28;86255;-75
2022/09/02 15:59:19;;;;;;;4.68;2.08;;;24.50;62.10;;;;;;4903435;28;86907;-75
2022/09/02 16:01:48;;;;;;;4.15;1.67;;;24.50;61.80;;;;;;4903695;28;86982;-76
2022/09/02 16:04:14;;;;;;;4.72;1.40;;;24.60;63.10;;;;;;4903884;28;87209;-75